Estación Meteorológica Peña el Pijo (Robertgarden) [ 01/30/23 15:15:08 CET ]

Fecha Hora Presion(HPa) Temp (°C) Humedad % Rocio (°C) Viento ( m/s) Direccion Lluvia 1Hora(mm) Lluvia 24H(mm) LLuvia Total(mm)
2010-Dec-13 01:01:16 1003.700 7.3 74 3.0         12.43
2010-Dec-13 02:03:14 1003.300 7.3 75 3.1         12.43
2010-Dec-13 03:01:12 1003.100 7.0 77 3.2         12.43
2010-Dec-13 04:01:12 1002.800 5.9 81 2.9         12.43
2010-Dec-13 05:01:15 1002.700 5.4 83 2.7         12.43
2010-Dec-13 06:01:14 1002.800 5.3 85 3.0         12.43
2010-Dec-13 07:01:15 1003.500 5.4 84 2.9         12.43
2010-Dec-13 08:01:12 1003.900 5.2 85 2.9         12.43
2010-Dec-13 09:01:16 1004.400 5.2 86 3.0         12.43
2010-Dec-13 10:01:12 1004.900 7.0 84 4.5         12.43
2010-Dec-13 11:01:17 1005.200 9.8 77 5.9         12.43
2010-Dec-13 12:01:14 1004.700 11.8 67 5.8         12.43
2010-Dec-13 13:01:12 1004.100 13.4 62 6.2         12.43
2010-Dec-13 14:01:12 1003.600 14.3 58 6.2         12.43
2010-Dec-13 15:01:15 1003.600 14.1 59 6.2         12.43
2010-Dec-13 16:01:14 1004.200 12.9 64 6.2 0.6 NNE     12.43
2010-Dec-13 17:01:13 1005.000 11.4 71 6.3         12.43
2010-Dec-13 18:01:14 1005.400 9.4 77 5.5         12.43
2010-Dec-13 19:01:12 1006.000 8.1 81 5.1         12.43
2010-Dec-13 20:01:17 1006.200 6.9 83 4.2         12.43
2010-Dec-13 21:01:11 1006.600 5.4 85 3.0         12.43
2010-Dec-13 22:01:14 1007.000 5.3 88 3.5         12.43
2010-Dec-13 23:01:17 1007.100 5.6 89 3.9         12.43

Temperatura Máxima:14°    Temperatura Mínima:
Presión Máxima:1007.100 Hpa    Presión Mínima:1002.700 Hpa


Volver